createdAt,value
2018-05-04T00:01:56.530Z,18.80
2018-05-04T00:04:23.946Z,18.70
2018-05-04T00:06:51.444Z,18.50
2018-05-04T00:11:47.199Z,18.40
2018-05-04T00:16:43.226Z,18.30
2018-05-04T00:21:40.712Z,18.10
2018-05-04T00:26:37.319Z,17.90
2018-05-04T00:29:04.797Z,18.00
2018-05-04T00:31:33.000Z,18.20
2018-05-04T00:34:00.389Z,18.20
2018-05-04T00:36:28.632Z,18.20
2018-05-04T00:43:52.762Z,18.20
2018-05-04T00:48:48.564Z,17.80
2018-05-04T00:51:16.701Z,17.80
2018-05-04T00:53:56.323Z,17.80
2018-05-04T00:56:24.342Z,17.90
2018-05-04T00:58:51.794Z,17.90
2018-05-04T01:03:47.554Z,17.80
2018-05-04T01:08:44.103Z,17.40
2018-05-04T01:11:12.258Z,17.50
2018-05-04T01:13:39.814Z,17.70
2018-05-04T01:16:08.015Z,17.70
2018-05-04T01:21:03.868Z,17.40
2018-05-04T01:23:31.324Z,17.30
2018-05-04T01:25:59.479Z,17.40
2018-05-04T01:28:26.943Z,17.60
2018-05-04T01:33:22.802Z,17.70
2018-05-04T01:40:48.010Z,17.80
2018-05-04T01:43:15.423Z,17.80
2018-05-04T01:45:42.884Z,17.80
2018-05-04T01:50:38.932Z,17.90
2018-05-04T01:53:06.454Z,17.90
2018-05-04T01:58:02.429Z,17.80
2018-05-04T02:00:30.566Z,17.80
2018-05-04T02:05:26.251Z,17.70
2018-05-04T02:07:53.802Z,17.70
2018-05-04T02:10:21.209Z,17.70
2018-05-04T02:12:48.922Z,17.60
2018-05-04T02:15:16.273Z,17.60
2018-05-04T02:17:43.726Z,17.50
2018-05-04T02:20:11.180Z,17.50
2018-05-04T02:22:39.421Z,17.40
2018-05-04T02:25:06.838Z,17.40
2018-05-04T02:27:34.977Z,17.40
2018-05-04T02:30:02.430Z,17.40
2018-05-04T02:32:29.852Z,17.40
2018-05-04T02:34:58.124Z,17.40
2018-05-04T02:39:53.822Z,17.40
2018-05-04T02:42:21.267Z,17.30
2018-05-04T02:44:48.749Z,17.30
2018-05-04T02:47:16.958Z,17.40
2018-05-04T02:52:13.504Z,17.50
2018-05-04T02:57:09.551Z,17.60
2018-05-04T02:59:36.974Z,17.50
2018-05-04T03:02:05.118Z,17.50
2018-05-04T03:04:32.572Z,17.50
2018-05-04T03:07:00.727Z,17.40
2018-05-04T03:09:28.167Z,17.30
2018-05-04T03:14:24.694Z,17.30
2018-05-04T03:16:52.896Z,17.30
2018-05-04T03:19:20.308Z,17.30
2018-05-04T03:21:48.449Z,17.40
2018-05-04T03:24:15.874Z,17.30
2018-05-04T03:26:44.093Z,17.30
2018-05-04T03:29:11.498Z,17.30
2018-05-04T03:31:39.019Z,17.20
2018-05-04T03:34:06.450Z,17.20
2018-05-04T03:39:02.993Z,17.10
2018-05-04T03:41:31.114Z,17.00
2018-05-04T03:43:59.183Z,17.00
2018-05-04T03:46:27.591Z,16.90
2018-05-04T03:51:23.310Z,16.80
2018-05-04T03:56:20.137Z,16.70
2018-05-04T03:59:00.074Z,16.70
2018-05-04T04:04:11.986Z,16.70
2018-05-04T04:06:39.477Z,16.70
2018-05-04T04:09:06.907Z,16.70
2018-05-04T04:11:35.137Z,16.70
2018-05-04T04:14:02.738Z,16.80
2018-05-04T04:16:30.871Z,16.80
2018-05-04T04:18:58.281Z,16.80
2018-05-04T04:23:54.908Z,16.70
2018-05-04T04:26:22.257Z,16.70
2018-05-04T04:28:50.394Z,16.70
2018-05-04T04:31:18.620Z,16.80
2018-05-04T04:33:46.130Z,16.90
2018-05-04T04:38:41.879Z,16.90
2018-05-04T04:41:09.518Z,16.90
2018-05-04T04:43:37.647Z,16.90
2018-05-04T04:46:05.071Z,16.90
2018-05-04T04:48:32.514Z,16.90
2018-05-04T04:53:28.327Z,16.90
2018-05-04T04:55:55.738Z,16.90
2018-05-04T05:00:52.232Z,16.90
2018-05-04T05:03:20.441Z,17.00
2018-05-04T05:05:47.882Z,17.10
2018-05-04T05:10:43.582Z,17.20
2018-05-04T05:13:11.019Z,17.30
2018-05-04T05:15:39.266Z,17.30
2018-05-04T05:18:06.658Z,17.40
2018-05-04T05:23:02.467Z,17.50
2018-05-04T05:25:30.575Z,17.50
2018-05-04T05:27:58.030Z,17.50
2018-05-04T05:32:53.779Z,17.50
2018-05-04T05:35:21.191Z,17.50
2018-05-04T05:40:18.066Z,17.60
2018-05-04T05:42:45.542Z,17.60
2018-05-04T05:45:13.050Z,17.70
2018-05-04T05:47:41.139Z,17.80
2018-05-04T05:50:08.631Z,17.80
2018-05-04T05:55:05.023Z,18.10
2018-05-04T05:57:33.125Z,18.20
2018-05-04T06:02:29.502Z,18.40
2018-05-04T06:04:57.614Z,18.40
2018-05-04T06:07:25.010Z,18.30
2018-05-04T06:09:53.211Z,18.30
2018-05-04T06:12:24.144Z,18.20
2018-05-04T06:17:19.911Z,18.20
2018-05-04T06:22:15.742Z,18.20
2018-05-04T06:27:11.503Z,18.40
2018-05-04T06:29:38.926Z,18.50
2018-05-04T06:32:07.087Z,18.70
2018-05-04T06:34:34.576Z,18.90
2018-05-04T06:39:30.467Z,19.40
2018-05-04T06:41:58.723Z,19.50
2018-05-04T06:44:26.071Z,19.60
2018-05-04T06:46:53.643Z,19.90
2018-05-04T06:49:21.100Z,19.70
2018-05-04T06:51:48.612Z,19.40
2018-05-04T06:54:16.062Z,19.10
2018-05-04T06:59:11.801Z,19.30
2018-05-04T07:01:39.219Z,19.60
2018-05-04T07:04:07.357Z,19.80
2018-05-04T07:06:34.774Z,20.00
2018-05-04T07:11:30.639Z,20.60
2018-05-04T07:16:26.383Z,20.90
2018-05-04T07:18:53.884Z,21.10
2018-05-04T07:23:49.689Z,21.60
2018-05-04T07:26:17.866Z,21.70
2018-05-04T07:28:45.334Z,21.90
2018-05-04T07:33:41.164Z,22.00
2018-05-04T07:36:08.666Z,22.20
2018-05-04T07:38:36.859Z,22.20
2018-05-04T07:41:04.230Z,22.40
2018-05-04T07:43:31.612Z,22.40
2018-05-04T07:48:27.458Z,22.80
2018-05-04T07:50:54.956Z,23.00
2018-05-04T07:53:22.341Z,22.90
2018-05-04T07:58:18.106Z,22.50
2018-05-04T08:00:45.539Z,22.40
2018-05-04T08:03:13.774Z,22.50
2018-05-04T08:05:41.916Z,22.20
2018-05-04T08:08:09.386Z,22.00
2018-05-04T08:10:36.973Z,21.70
2018-05-04T08:15:32.753Z,21.00
2018-05-04T08:20:28.646Z,21.20
2018-05-04T08:22:56.164Z,21.20
2018-05-04T08:25:23.565Z,21.20
2018-05-04T08:30:19.322Z,21.10
2018-05-04T08:32:47.514Z,21.20
2018-05-04T08:35:14.949Z,21.30
2018-05-04T08:37:43.043Z,21.50
2018-05-04T08:40:10.523Z,21.70
2018-05-04T08:45:06.219Z,22.30
2018-05-04T08:47:33.665Z,22.70
2018-05-04T08:50:01.824Z,23.30
2018-05-04T08:54:58.338Z,24.00
2018-05-04T08:59:54.846Z,23.80
2018-05-04T09:02:22.323Z,23.90
2018-05-04T09:04:50.661Z,23.80
2018-05-04T09:07:17.991Z,23.90
2018-05-04T09:09:46.125Z,23.70
2018-05-04T09:12:13.579Z,23.40
2018-05-04T09:14:41.015Z,23.60
2018-05-04T09:17:09.247Z,24.20
2018-05-04T09:19:36.704Z,24.40
2018-05-04T09:22:04.176Z,24.40
2018-05-04T09:26:59.846Z,25.70
2018-05-04T09:31:55.661Z,26.70
2018-05-04T09:39:20.502Z,25.20
2018-05-04T09:41:48.682Z,25.20
2018-05-04T09:44:16.176Z,26.20
2018-05-04T09:46:44.299Z,26.90
2018-05-04T09:51:40.908Z,28.20
2018-05-04T09:54:09.083Z,28.60
2018-05-04T09:56:37.213Z,28.90
2018-05-04T09:59:05.352Z,29.10
2018-05-04T10:01:33.460Z,29.40
2018-05-04T10:04:00.838Z,29.60
2018-05-04T10:06:46.484Z,29.90
2018-05-04T10:09:35.345Z,30.40
2018-05-04T10:14:53.976Z,31.10
2018-05-04T10:20:00.257Z,31.70
2018-05-04T10:27:38.933Z,32.20
2018-05-04T10:35:17.787Z,32.40
2018-05-04T10:37:48.979Z,32.50
2018-05-04T10:40:22.447Z,32.10
2018-05-04T10:42:52.764Z,30.90
2018-05-04T10:45:23.204Z,31.60
2018-05-04T10:47:52.342Z,32.40
2018-05-04T10:50:24.474Z,32.80
2018-05-04T10:52:59.359Z,32.80
2018-05-04T10:55:29.740Z,32.40
2018-05-04T10:58:02.890Z,33.00
2018-05-04T11:00:32.088Z,33.20
2018-05-04T11:03:02.927Z,33.20
2018-05-04T11:05:36.873Z,33.00
2018-05-04T11:08:12.490Z,32.40
2018-05-04T11:10:44.353Z,32.00
2018-05-04T11:13:12.593Z,30.80
2018-05-04T11:15:41.778Z,30.70
2018-05-04T11:18:09.269Z,30.50
2018-05-04T11:23:06.190Z,29.10
2018-05-04T11:25:34.526Z,28.80
2018-05-04T11:28:03.863Z,28.30
2018-05-04T11:30:32.126Z,27.90
2018-05-04T11:33:00.377Z,28.00
2018-05-04T11:35:27.769Z,28.20
2018-05-04T11:40:35.161Z,27.90
2018-05-04T11:43:06.295Z,27.80
2018-05-04T11:45:36.439Z,27.40
2018-05-04T11:48:03.864Z,26.90
2018-05-04T11:50:32.138Z,26.60
2018-05-04T11:53:00.352Z,26.80
2018-05-04T11:57:58.193Z,27.10
2018-05-04T12:03:01.711Z,27.90
2018-05-04T12:05:30.980Z,28.00
2018-05-04T12:10:30.570Z,28.30
2018-05-04T12:13:01.396Z,28.50
2018-05-04T12:15:31.793Z,29.80
2018-05-04T12:28:02.192Z,31.30
2018-05-04T12:33:00.187Z,32.40
2018-05-04T12:35:28.611Z,32.60
2018-05-04T12:37:58.025Z,32.90
2018-05-04T12:42:56.650Z,32.80
2018-05-04T12:47:55.122Z,32.60
2018-05-04T12:50:24.206Z,32.80
2018-05-04T12:52:55.292Z,32.90
2018-05-04T12:55:25.635Z,33.00
2018-05-04T12:57:55.714Z,32.20
2018-05-04T13:00:23.142Z,31.80
2018-05-04T13:02:50.819Z,31.00
2018-05-04T13:05:19.075Z,31.10
2018-05-04T13:07:47.280Z,30.70
2018-05-04T13:10:14.689Z,30.00
2018-05-04T13:12:42.342Z,29.40
2018-05-04T13:15:09.705Z,28.90
2018-05-04T13:17:37.111Z,28.50
2018-05-04T13:20:04.579Z,28.20
2018-05-04T13:22:32.848Z,27.90
2018-05-04T13:25:00.263Z,27.70
2018-05-04T13:27:28.415Z,27.80
2018-05-04T13:32:25.118Z,27.90
2018-05-04T13:34:52.515Z,28.00
2018-05-04T13:39:48.420Z,28.10
2018-05-04T13:42:16.559Z,29.10
2018-05-04T13:47:12.527Z,29.30
2018-05-04T13:49:40.008Z,29.00
2018-05-04T13:52:08.115Z,28.40
2018-05-04T13:54:35.542Z,28.10
2018-05-04T13:57:02.949Z,28.30
2018-05-04T13:59:30.495Z,28.40
2018-05-04T14:01:58.698Z,28.00
2018-05-04T14:04:26.907Z,27.60
2018-05-04T14:11:50.922Z,26.60
2018-05-04T14:16:46.626Z,26.30
2018-05-04T14:19:14.101Z,26.30
2018-05-04T14:21:42.387Z,26.20
2018-05-04T14:24:09.752Z,26.00
2018-05-04T14:26:37.971Z,26.00
2018-05-04T14:29:05.342Z,26.00
2018-05-04T14:34:01.232Z,25.80
2018-05-04T14:38:57.006Z,25.90
2018-05-04T14:41:24.434Z,25.80
2018-05-04T14:43:52.815Z,25.70
2018-05-04T14:46:20.225Z,25.60
2018-05-04T14:51:15.975Z,25.30
2018-05-04T14:53:43.456Z,25.10
2018-05-04T14:56:11.621Z,24.90
2018-05-04T15:01:08.047Z,25.20
2018-05-04T15:03:35.498Z,25.30
2018-05-04T15:08:31.287Z,25.30
2018-05-04T15:10:59.413Z,25.30
2018-05-04T15:13:27.594Z,25.40
2018-05-04T15:15:55.037Z,25.50
2018-05-04T15:18:22.515Z,25.50
2018-05-04T15:20:49.960Z,25.40
2018-05-04T15:23:18.127Z,25.40
2018-05-04T15:25:45.563Z,25.30
2018-05-04T15:28:13.130Z,25.30
2018-05-04T15:30:41.290Z,25.20
2018-05-04T15:33:08.696Z,25.20
2018-05-04T15:35:36.201Z,25.30
2018-05-04T15:38:04.337Z,25.40
2018-05-04T15:40:32.598Z,25.30
2018-05-04T15:43:00.744Z,25.40
2018-05-04T15:45:28.228Z,25.50
2018-05-04T15:47:55.590Z,25.50
2018-05-04T15:50:29.785Z,25.50
2018-05-04T15:52:57.175Z,25.40
2018-05-04T15:57:52.917Z,25.00
2018-05-04T16:02:48.789Z,24.80
2018-05-04T16:05:16.254Z,24.80
2018-05-04T16:07:44.470Z,24.70
2018-05-04T16:10:11.943Z,24.60
2018-05-04T16:12:39.422Z,24.50
2018-05-04T16:15:06.834Z,24.50
2018-05-04T16:17:34.942Z,24.50
2018-05-04T16:20:02.431Z,24.50
2018-05-04T16:24:58.335Z,24.40
2018-05-04T16:29:54.067Z,24.20
2018-05-04T16:32:21.601Z,24.20
2018-05-04T16:34:49.011Z,24.30
2018-05-04T16:37:16.451Z,24.30
2018-05-04T16:39:43.931Z,24.20
2018-05-04T16:42:11.355Z,24.20
2018-05-04T16:44:38.763Z,24.20
2018-05-04T16:47:12.187Z,24.10
2018-05-04T16:49:39.767Z,24.10
2018-05-04T16:52:07.187Z,24.10
2018-05-04T16:54:35.317Z,24.00
2018-05-04T16:59:31.860Z,23.60
2018-05-04T17:01:59.223Z,23.60
2018-05-04T17:04:27.342Z,23.60
2018-05-04T17:06:55.479Z,23.60
2018-05-04T17:09:23.032Z,23.50
2018-05-04T17:11:51.232Z,23.30
2018-05-04T17:14:19.406Z,23.30
2018-05-04T17:16:47.493Z,23.20
2018-05-04T17:21:43.287Z,23.40
2018-05-04T17:24:11.447Z,23.20
2018-05-04T17:26:38.934Z,23.30
2018-05-04T17:31:34.812Z,23.20
2018-05-04T17:36:30.555Z,23.00
2018-05-04T17:41:27.067Z,23.10
2018-05-04T17:43:54.468Z,23.10
2018-05-04T17:46:21.860Z,23.00
2018-05-04T17:48:49.975Z,22.90
2018-05-04T17:51:17.387Z,22.80
2018-05-04T17:53:45.597Z,22.60
2018-05-04T17:56:13.088Z,22.60
2018-05-04T18:01:08.773Z,22.60
2018-05-04T18:08:32.998Z,22.70
2018-05-04T18:11:00.379Z,22.60
2018-05-04T18:13:28.520Z,22.50
2018-05-04T18:15:55.909Z,22.40
2018-05-04T18:18:23.992Z,22.30
2018-05-04T18:23:19.786Z,22.10
2018-05-04T18:25:47.162Z,22.10
2018-05-04T18:28:15.498Z,22.10
2018-05-04T18:30:43.774Z,22.10
2018-05-04T18:33:11.302Z,22.20
2018-05-04T18:35:38.870Z,22.20
2018-05-04T18:43:03.663Z,22.20
2018-05-04T18:45:31.300Z,22.20
2018-05-04T18:47:59.423Z,22.20
2018-05-04T18:55:24.519Z,22.20
2018-05-04T18:57:51.890Z,22.20
2018-05-04T19:00:19.323Z,22.10
2018-05-04T19:05:21.002Z,22.00
2018-05-04T19:07:49.175Z,22.00
2018-05-04T19:10:17.466Z,21.90
2018-05-04T19:12:45.710Z,21.90
2018-05-04T19:15:13.295Z,21.90
2018-05-04T19:17:41.429Z,21.80
2018-05-04T19:20:09.613Z,21.80
2018-05-04T19:22:37.026Z,21.80
2018-05-04T19:25:05.301Z,21.80
2018-05-04T19:30:01.760Z,21.60
2018-05-04T19:32:29.910Z,21.60
2018-05-04T19:34:57.487Z,21.60
2018-05-04T19:39:53.530Z,21.60
2018-05-04T19:47:18.326Z,21.50
2018-05-04T19:52:14.160Z,21.40
2018-05-04T19:57:09.880Z,21.40
2018-05-04T19:59:37.261Z,21.30
2018-05-04T20:02:04.684Z,21.30
2018-05-04T20:04:32.781Z,21.30
2018-05-04T20:07:01.039Z,21.10
2018-05-04T20:09:29.218Z,21.10
2018-05-04T20:11:57.355Z,21.10
2018-05-04T20:19:32.186Z,21.10
2018-05-04T20:24:29.023Z,21.00
2018-05-04T20:26:56.580Z,21.00
2018-05-04T20:29:24.024Z,21.10
2018-05-04T20:34:21.667Z,21.00
2018-05-04T20:39:19.375Z,21.00
2018-05-04T20:41:48.099Z,20.90
2018-05-04T20:44:18.186Z,20.80
2018-05-04T20:46:45.654Z,20.80
2018-05-04T20:49:16.190Z,20.70
2018-05-04T20:51:47.416Z,20.70
2018-05-04T20:54:16.998Z,20.60
2018-05-04T20:56:46.523Z,20.60
2018-05-04T20:59:15.717Z,20.60
2018-05-04T21:01:44.246Z,20.60
2018-05-04T21:04:11.734Z,20.60
2018-05-04T21:06:39.218Z,20.60
2018-05-04T21:14:06.399Z,20.50
2018-05-04T21:19:02.866Z,20.50
2018-05-04T21:21:30.511Z,20.40
2018-05-04T21:23:58.045Z,20.30
2018-05-04T21:28:54.914Z,20.10
2018-05-04T21:31:22.600Z,20.20
2018-05-04T21:33:50.967Z,20.10
2018-05-04T21:36:19.296Z,20.10
2018-05-04T21:38:47.591Z,20.20
2018-05-04T21:41:15.063Z,20.20
2018-05-04T21:43:42.596Z,20.10
2018-05-04T21:46:10.166Z,19.90
2018-05-04T21:48:39.402Z,19.90
2018-05-04T21:51:10.401Z,19.90
2018-05-04T21:53:38.675Z,20.00
2018-05-04T21:56:06.667Z,20.00
2018-05-04T21:58:34.064Z,20.00
2018-05-04T22:01:03.116Z,20.00
2018-05-04T22:03:36.395Z,20.00
2018-05-04T22:06:07.341Z,19.90
2018-05-04T22:08:39.776Z,19.90
2018-05-04T22:11:09.071Z,20.00
2018-05-04T22:13:36.613Z,20.00
2018-05-04T22:16:04.845Z,20.00
2018-05-04T22:18:36.107Z,19.90
2018-05-04T22:21:14.538Z,19.90
2018-05-04T22:23:44.058Z,19.90
2018-05-04T22:26:11.805Z,19.90
2018-05-04T22:28:41.108Z,19.90
2018-05-04T22:31:14.014Z,19.90
2018-05-04T22:33:44.933Z,19.90
2018-05-04T22:36:15.179Z,19.80
2018-05-04T22:38:43.446Z,19.90
2018-05-04T22:41:13.260Z,19.90
2018-05-04T22:43:46.527Z,19.90
2018-05-04T22:46:17.434Z,19.90
2018-05-04T22:48:46.698Z,19.90
2018-05-04T22:51:16.758Z,19.90
2018-05-04T22:53:47.967Z,19.90
2018-05-04T22:56:16.400Z,19.80
2018-05-04T22:58:46.989Z,19.80
2018-05-04T23:01:14.467Z,19.70
2018-05-04T23:03:43.815Z,19.70
2018-05-04T23:06:12.167Z,19.60
2018-05-04T23:08:41.614Z,19.60
2018-05-04T23:11:09.104Z,19.50
2018-05-04T23:13:36.446Z,19.50
2018-05-04T23:16:04.590Z,19.50
2018-05-04T23:18:31.957Z,19.50
2018-05-04T23:21:00.190Z,19.50
2018-05-04T23:23:27.663Z,19.50
2018-05-04T23:25:55.096Z,19.50
2018-05-04T23:28:22.531Z,19.50
2018-05-04T23:30:50.026Z,19.50
2018-05-04T23:33:18.287Z,19.50
2018-05-04T23:35:45.658Z,19.50
2018-05-04T23:38:13.120Z,19.50
2018-05-04T23:43:08.875Z,19.50
2018-05-04T23:45:36.447Z,19.50
2018-05-04T23:48:04.631Z,19.40
2018-05-04T23:50:32.843Z,19.40
2018-05-04T23:53:00.314Z,19.40
2018-05-04T23:55:27.710Z,19.40
2018-05-04T23:57:55.902Z,19.40
